createdAt,value
2016-09-15T00:00:18.079Z,56.82
2016-09-15T00:01:18.064Z,57.12
2016-09-15T00:02:18.041Z,57.21
2016-09-15T00:03:18.022Z,57.5
2016-09-15T00:04:18.004Z,57.12
2016-09-15T00:05:17.993Z,57.31
2016-09-15T00:06:17.969Z,57.6
2016-09-15T00:07:17.951Z,57.4
2016-09-15T00:08:17.933Z,57.21
2016-09-15T00:09:17.912Z,57.5
2016-09-15T00:10:17.890Z,57.5
2016-09-15T00:11:17.878Z,57.5
2016-09-15T00:12:17.861Z,57.67
2016-09-15T00:13:17.839Z,57.76
2016-09-15T00:14:17.817Z,57.67
2016-09-15T00:15:17.802Z,57.67
2016-09-15T00:16:17.780Z,57.67
2016-09-15T00:17:17.763Z,57.86
2016-09-15T00:18:17.745Z,57.76
2016-09-15T00:19:17.725Z,57.76
2016-09-15T00:20:17.702Z,57.76
2016-09-15T00:21:17.687Z,57.67
2016-09-15T00:22:17.669Z,57.76
2016-09-15T00:23:17.653Z,57.67
2016-09-15T00:24:17.629Z,57.86
2016-09-15T00:25:17.614Z,58.15
2016-09-15T00:26:17.593Z,57.76
2016-09-15T00:27:17.573Z,57.86
2016-09-15T00:28:17.562Z,58.05
2016-09-15T00:29:17.536Z,58.15
2016-09-15T00:30:17.517Z,58.05
2016-09-15T00:31:17.498Z,58.24
2016-09-15T00:32:17.478Z,58.15
2016-09-15T00:33:17.463Z,58.05
2016-09-15T00:34:17.441Z,58.15
2016-09-15T00:35:17.430Z,58.24
2016-09-15T00:36:17.402Z,58.34
2016-09-15T00:37:17.387Z,58.24
2016-09-15T00:38:17.369Z,57.95
2016-09-15T00:39:17.349Z,58.7
2016-09-15T00:40:17.335Z,58.5
2016-09-15T00:41:17.318Z,58.44
2016-09-15T00:42:17.286Z,58.53
2016-09-15T00:43:17.273Z,58.7
2016-09-15T00:44:17.252Z,58.5
2016-09-15T00:45:17.242Z,58.6
2016-09-15T00:46:17.211Z,58.7
2016-09-15T00:47:17.197Z,58.31
2016-09-15T00:48:17.176Z,58.4
2016-09-15T00:49:17.158Z,58.4
2016-09-15T00:50:17.135Z,58.22
2016-09-15T00:51:17.119Z,58.12
2016-09-15T00:52:17.098Z,58.22
2016-09-15T00:53:17.081Z,58.5
2016-09-15T00:54:17.060Z,58.79
2016-09-15T00:55:17.044Z,58.79
2016-09-15T00:56:17.022Z,58.5
2016-09-15T00:57:17.005Z,58.7
2016-09-15T00:58:16.988Z,58.31
2016-09-15T00:59:16.967Z,58.5
2016-09-15T01:00:16.946Z,58.7
2016-09-15T01:01:16.934Z,58.79
2016-09-15T01:02:16.906Z,59.08
2016-09-15T01:03:16.889Z,59.08
2016-09-15T01:04:16.871Z,58.98
2016-09-15T01:05:16.852Z,59.17
2016-09-15T01:06:16.830Z,59.17
2016-09-15T01:07:16.814Z,59.17
2016-09-15T01:08:16.790Z,59.08
2016-09-15T01:09:16.777Z,59.08
2016-09-15T01:10:16.755Z,59.17
2016-09-15T01:11:16.738Z,59.17
2016-09-15T01:12:16.719Z,59.17
2016-09-15T01:13:16.700Z,59.27
2016-09-15T01:14:16.677Z,59.08
2016-09-15T01:15:16.658Z,59.08
2016-09-15T01:16:16.639Z,59.17
2016-09-15T01:17:16.621Z,59.17
2016-09-15T01:18:16.601Z,59.08
2016-09-15T01:19:16.583Z,59.17
2016-09-15T01:20:16.561Z,58.79
2016-09-15T01:21:16.545Z,59.17
2016-09-15T01:22:16.524Z,58.79
2016-09-15T01:23:16.510Z,58.89
2016-09-15T01:24:16.485Z,58.98
2016-09-15T01:25:16.471Z,58.98
2016-09-15T01:26:16.443Z,59.17
2016-09-15T01:27:16.428Z,59.17
2016-09-15T01:28:16.406Z,58.89
2016-09-15T01:29:16.390Z,59.17
2016-09-15T01:30:16.370Z,58.98
2016-09-15T01:31:16.350Z,59.08
2016-09-15T01:32:16.330Z,59.08
2016-09-15T01:33:16.323Z,59.56
2016-09-15T01:34:16.292Z,59.47
2016-09-15T01:35:16.287Z,59.37
2016-09-15T01:36:16.253Z,59.34
2016-09-15T01:37:16.235Z,59.27
2016-09-15T01:38:16.215Z,59.24
2016-09-15T01:39:16.195Z,59.66
2016-09-15T01:40:16.175Z,59.27
2016-09-15T01:41:16.157Z,59.47
2016-09-15T01:42:16.137Z,59.53
2016-09-15T01:43:16.124Z,59.37
2016-09-15T01:44:16.096Z,59.94
2016-09-15T01:45:16.084Z,59.82
2016-09-15T01:46:16.059Z,59.82
2016-09-15T01:47:16.040Z,59.66
2016-09-15T01:48:16.020Z,59.72
2016-09-15T01:49:16.001Z,59.82
2016-09-15T01:50:15.981Z,59.63
2016-09-15T01:51:15.962Z,59.63
2016-09-15T01:52:15.941Z,59.72
2016-09-15T01:53:15.925Z,60.11
2016-09-15T01:54:15.905Z,59.72
2016-09-15T01:55:15.884Z,60.21
2016-09-15T01:56:15.862Z,59.92
2016-09-15T01:57:15.852Z,60.11
2016-09-15T01:58:15.825Z,59.92
2016-09-15T01:59:15.805Z,59.72
2016-09-15T02:00:15.784Z,59.53
2016-09-15T02:01:15.765Z,59.53
2016-09-15T02:02:15.746Z,59.63
2016-09-15T02:03:15.729Z,59.92
2016-09-15T02:04:15.705Z,60.01
2016-09-15T02:05:15.687Z,59.92
2016-09-15T02:06:15.668Z,60.69
2016-09-15T02:07:15.648Z,60.49
2016-09-15T02:08:15.628Z,60.11
2016-09-15T02:09:15.617Z,60.49
2016-09-15T02:10:15.591Z,60.11
2016-09-15T02:11:15.572Z,60.21
2016-09-15T02:12:15.549Z,60.39
2016-09-15T02:13:15.535Z,60.3
2016-09-15T02:14:15.511Z,60.49
2016-09-15T02:15:15.491Z,60.49
2016-09-15T02:16:15.474Z,60.59
2016-09-15T02:17:15.456Z,60.39
2016-09-15T02:18:15.432Z,60.69
2016-09-15T02:19:15.417Z,60.59
2016-09-15T02:20:15.392Z,60.59
2016-09-15T02:21:15.374Z,60.88
2016-09-15T02:22:15.356Z,60.59
2016-09-15T02:23:15.341Z,60.56
2016-09-15T02:24:15.319Z,60.69
2016-09-15T02:25:15.296Z,60.49
2016-09-15T02:26:15.276Z,60.46
2016-09-15T02:27:15.258Z,60.88
2016-09-15T02:28:15.235Z,60.94
2016-09-15T02:29:15.220Z,60.78
2016-09-15T02:30:15.196Z,60.97
2016-09-15T02:31:15.187Z,60.56
2016-09-15T02:32:15.155Z,61.14
2016-09-15T02:33:15.139Z,61.23
2016-09-15T02:34:15.118Z,60.97
2016-09-15T02:35:15.099Z,61.04
2016-09-15T02:36:15.075Z,61.04
2016-09-15T02:37:15.057Z,61.14
2016-09-15T02:38:15.039Z,61.14
2016-09-15T02:39:15.021Z,60.94
2016-09-15T02:40:14.998Z,61.33
2016-09-15T02:41:14.981Z,61.61
2016-09-15T02:42:14.961Z,61.71
2016-09-15T02:43:14.944Z,61.33
2016-09-15T02:44:14.921Z,61.23
2016-09-15T02:45:14.902Z,61.43
2016-09-15T02:46:14.882Z,61.43
2016-09-15T02:47:14.861Z,61.23
2016-09-15T02:48:14.841Z,61.43
2016-09-15T02:49:14.823Z,61.14
2016-09-15T02:50:14.803Z,61.23
2016-09-15T02:51:14.780Z,61.23
2016-09-15T02:52:14.763Z,61.71
2016-09-15T02:53:14.748Z,61.61
2016-09-15T02:54:14.721Z,62.1
2016-09-15T02:55:14.703Z,62
2016-09-15T02:56:14.683Z,61.81
2016-09-15T02:57:14.663Z,61.91
2016-09-15T02:58:14.641Z,61.91
2016-09-15T02:59:14.623Z,61.91
2016-09-15T03:00:14.609Z,62.1
2016-09-15T03:01:14.583Z,62
2016-09-15T03:02:14.562Z,62
2016-09-15T03:03:14.543Z,61.61
2016-09-15T03:04:14.529Z,61.81
2016-09-15T03:05:14.502Z,62
2016-09-15T03:06:14.480Z,62.1
2016-09-15T03:07:14.463Z,62.29
2016-09-15T03:08:14.442Z,62.19
2016-09-15T03:09:14.424Z,62.19
2016-09-15T03:10:14.406Z,62.38
2016-09-15T03:11:14.385Z,62.77
2016-09-15T03:12:14.364Z,62.48
2016-09-15T03:13:14.342Z,62.68
2016-09-15T03:14:14.323Z,62.68
2016-09-15T03:15:14.318Z,62.77
2016-09-15T03:16:14.284Z,62.87
2016-09-15T03:17:14.266Z,62.77
2016-09-15T03:18:14.243Z,62.48
2016-09-15T03:19:14.222Z,62.68
2016-09-15T03:20:14.204Z,62.58
2016-09-15T03:21:14.183Z,62.64
2016-09-15T03:22:14.175Z,62.87
2016-09-15T03:23:14.146Z,62.58
2016-09-15T03:24:14.130Z,62.87
2016-09-15T03:25:14.104Z,63.02
2016-09-15T03:26:14.084Z,63.41
2016-09-15T03:27:14.064Z,63.22
2016-09-15T03:28:14.050Z,63.15
2016-09-15T03:29:14.022Z,63.22
2016-09-15T03:30:14.007Z,63.41
2016-09-15T03:31:14.279Z,63.41
2016-09-15T03:32:13.964Z,63.41
2016-09-15T03:33:13.941Z,63.6
2016-09-15T03:34:13.925Z,63.41
2016-09-15T03:35:13.901Z,63.6
2016-09-15T03:36:13.884Z,63.51
2016-09-15T03:37:13.862Z,63.51
2016-09-15T03:38:13.840Z,63.51
2016-09-15T03:39:13.827Z,63.41
2016-09-15T03:40:13.802Z,63.79
2016-09-15T03:41:13.779Z,63.51
2016-09-15T03:42:13.760Z,63.6
2016-09-15T03:43:13.745Z,64.09
2016-09-15T03:44:13.721Z,64.28
2016-09-15T03:45:13.700Z,63.79
2016-09-15T03:46:13.681Z,63.89
2016-09-15T03:47:13.660Z,63.99
2016-09-15T03:48:13.637Z,63.79
2016-09-15T03:49:13.623Z,63.89
2016-09-15T03:50:13.599Z,63.7
2016-09-15T03:51:13.580Z,63.79
2016-09-15T03:52:13.558Z,64.09
2016-09-15T03:53:13.547Z,63.89
2016-09-15T03:54:13.520Z,64.18
2016-09-15T03:55:13.498Z,64.56
2016-09-15T03:56:13.476Z,64.37
2016-09-15T03:57:13.457Z,64.09
2016-09-15T03:58:13.435Z,64.28
2016-09-15T03:59:13.417Z,64.28
2016-09-15T04:00:13.394Z,64.66
2016-09-15T04:01:13.376Z,64.28
2016-09-15T04:02:13.358Z,64.47
2016-09-15T04:03:13.333Z,64.47
2016-09-15T04:04:13.315Z,64.37
2016-09-15T04:05:13.295Z,64.37
2016-09-15T04:06:13.274Z,64.09
2016-09-15T04:07:13.253Z,64.28
2016-09-15T04:08:13.236Z,64.18
2016-09-15T04:09:13.220Z,64.66
2016-09-15T04:10:13.194Z,64.76
2016-09-15T04:11:13.173Z,64.85
2016-09-15T04:12:13.158Z,64.56
2016-09-15T04:13:13.427Z,65.14
2016-09-15T04:14:13.419Z,65.05
2016-09-15T04:15:13.093Z,65.43
2016-09-15T04:16:13.074Z,65.14
2016-09-15T04:17:13.056Z,65.05
2016-09-15T04:18:13.032Z,65.05
2016-09-15T04:19:13.011Z,64.95
2016-09-15T04:20:12.994Z,64.95
2016-09-15T04:21:12.971Z,64.85
2016-09-15T04:22:12.954Z,65.14
2016-09-15T04:23:12.934Z,64.95
2016-09-15T04:24:12.913Z,65.14
2016-09-15T04:25:12.893Z,65.23
2016-09-15T04:26:12.871Z,65.23
2016-09-15T04:27:12.903Z,65.23
2016-09-15T04:28:12.831Z,65.05
2016-09-15T04:29:12.812Z,65.33
2016-09-15T04:30:12.791Z,65.05
2016-09-15T04:31:12.769Z,65.33
2016-09-15T04:32:12.753Z,65.43
2016-09-15T04:33:12.732Z,65.23
2016-09-15T04:34:12.711Z,65.05
2016-09-15T04:35:12.690Z,65.43
2016-09-15T04:36:12.666Z,65.53
2016-09-15T04:37:12.652Z,65.05
2016-09-15T04:38:12.630Z,65.43
2016-09-15T04:39:12.609Z,65.62
2016-09-15T04:40:12.589Z,65.43
2016-09-15T04:41:12.569Z,65.62
2016-09-15T04:42:12.549Z,65.53
2016-09-15T04:43:12.529Z,65.43
2016-09-15T04:44:12.511Z,65.62
2016-09-15T04:45:12.489Z,65.14
2016-09-15T04:46:12.767Z,65.33
2016-09-15T04:47:12.447Z,65.23
2016-09-15T04:48:12.429Z,65.62
2016-09-15T04:49:12.408Z,65.33
2016-09-15T04:50:12.388Z,65.23
2016-09-15T04:51:12.368Z,65.33
2016-09-15T04:52:12.350Z,65.62
2016-09-15T04:53:12.329Z,65.62
2016-09-15T04:54:12.307Z,65.53
2016-09-15T04:55:12.287Z,65.72
2016-09-15T04:56:12.271Z,65.62
2016-09-15T04:57:12.247Z,65.72
2016-09-15T04:58:12.228Z,65.72
2016-09-15T04:59:12.209Z,65.72
2016-09-15T05:00:12.188Z,65.62
2016-09-15T05:01:12.169Z,65.72
2016-09-15T05:02:12.147Z,66.1
2016-09-15T05:03:12.129Z,66.2
2016-09-15T05:04:12.107Z,65.91
2016-09-15T05:05:12.089Z,66
2016-09-15T05:06:12.065Z,66.1
2016-09-15T05:07:12.048Z,66.39
2016-09-15T05:08:12.026Z,66.1
2016-09-15T05:09:12.005Z,66.2
2016-09-15T05:10:11.986Z,66.2
2016-09-15T05:11:11.967Z,66
2016-09-15T05:12:11.949Z,66.3
2016-09-15T05:13:11.925Z,66.3
2016-09-15T05:14:11.905Z,66.39
2016-09-15T05:15:11.887Z,66.49
2016-09-15T05:16:11.867Z,66.58
2016-09-15T05:17:11.844Z,66.97
2016-09-15T05:18:11.831Z,66.68
2016-09-15T05:19:11.805Z,66.39
2016-09-15T05:20:11.785Z,66.87
2016-09-15T05:21:11.766Z,66.87
2016-09-15T05:22:11.750Z,66.87
2016-09-15T05:23:11.723Z,66.97
2016-09-15T05:24:12.221Z,66.97
2016-09-15T05:25:11.684Z,66.77
2016-09-15T05:26:11.668Z,66.87
2016-09-15T05:27:11.644Z,67.16
2016-09-15T05:28:11.624Z,67.16
2016-09-15T05:29:11.605Z,67.07
2016-09-15T05:30:11.586Z,67.25
2016-09-15T05:31:11.564Z,66.97
2016-09-15T05:32:11.546Z,67.35
2016-09-15T05:33:11.524Z,67.07
2016-09-15T05:34:11.504Z,67.35
2016-09-15T05:35:11.485Z,67.25
2016-09-15T05:36:11.463Z,67.74
2016-09-15T05:37:11.445Z,67.45
2016-09-15T05:38:11.424Z,67.25
2016-09-15T05:39:11.403Z,67.16
2016-09-15T05:40:11.386Z,67
2016-09-15T05:41:11.363Z,66.81
2016-09-15T05:42:11.342Z,67.1
2016-09-15T05:43:11.324Z,66.42
2016-09-15T05:44:11.303Z,66.33
2016-09-15T05:45:11.286Z,66.91
2016-09-15T05:46:11.263Z,66.52
2016-09-15T05:47:11.244Z,66.61
2016-09-15T05:48:11.231Z,66.33
2016-09-15T05:49:11.205Z,65.94
2016-09-15T05:50:11.187Z,66.14
2016-09-15T05:51:11.167Z,66.14
2016-09-15T05:52:11.148Z,66.14
2016-09-15T05:53:11.131Z,66.33
2016-09-15T05:54:11.108Z,66.42
2016-09-15T05:55:11.089Z,66.33
2016-09-15T05:56:11.069Z,65.94
2016-09-15T05:57:11.048Z,66.14
2016-09-15T05:58:11.029Z,65.94
2016-09-15T05:59:11.012Z,66.04
2016-09-15T06:00:10.989Z,66.23
2016-09-15T06:01:10.974Z,66.17
2016-09-15T06:02:10.951Z,66.04
2016-09-15T06:03:10.933Z,66.42
2016-09-15T06:04:10.910Z,66.23
2016-09-15T06:05:10.892Z,66.46
2016-09-15T06:06:10.874Z,66.04
2016-09-15T06:07:10.854Z,65.78
2016-09-15T06:08:10.837Z,65.88
2016-09-15T06:09:10.815Z,65.78
2016-09-15T06:10:10.794Z,65.59
2016-09-15T06:11:10.778Z,65.59
2016-09-15T06:12:10.759Z,65.59
2016-09-15T06:13:10.737Z,65.4
2016-09-15T06:14:10.739Z,65.3
2016-09-15T06:15:10.700Z,65.3
2016-09-15T06:16:10.680Z,65.2
2016-09-15T06:17:10.662Z,65.59
2016-09-15T06:18:10.642Z,65.01
2016-09-15T06:19:10.623Z,65.2
2016-09-15T06:20:10.605Z,65.11
2016-09-15T06:21:10.585Z,64.76
2016-09-15T06:22:10.565Z,64.47
2016-09-15T06:23:10.547Z,64.56
2016-09-15T06:24:10.530Z,64.37
2016-09-15T06:25:10.507Z,64.66
2016-09-15T06:26:10.491Z,64.47
2016-09-15T06:27:10.469Z,64.66
2016-09-15T06:28:10.452Z,64.47
2016-09-15T06:29:10.433Z,64.37
2016-09-15T06:30:10.414Z,64.47
2016-09-15T06:31:10.395Z,64.47
2016-09-15T06:32:10.380Z,64.37
2016-09-15T06:33:10.360Z,63.89
2016-09-15T06:34:10.340Z,63.89
2016-09-15T06:35:10.321Z,64.37
2016-09-15T06:36:10.302Z,64.37
2016-09-15T06:37:10.283Z,63.89
2016-09-15T06:38:10.264Z,63.92
2016-09-15T06:39:10.248Z,64.02
2016-09-15T06:40:10.227Z,63.64
2016-09-15T06:41:10.208Z,63.73
2016-09-15T06:42:10.189Z,63.64
2016-09-15T06:43:10.169Z,63.34
2016-09-15T06:44:10.154Z,62.96
2016-09-15T06:45:10.132Z,62.87
2016-09-15T06:46:10.117Z,62.87
2016-09-15T06:47:10.094Z,62.96
2016-09-15T06:48:10.081Z,63.15
2016-09-15T06:49:10.063Z,62.77
2016-09-15T06:50:10.044Z,62.67
2016-09-15T06:51:10.027Z,62.77
2016-09-15T06:52:10.007Z,62.6
2016-09-15T06:53:09.988Z,63.06
2016-09-15T06:54:09.968Z,62.67
2016-09-15T06:55:09.953Z,62.96
2016-09-15T06:56:09.933Z,62.96
2016-09-15T06:57:09.916Z,62.67
2016-09-15T06:58:09.898Z,62.67
2016-09-15T06:59:09.879Z,62.7
2016-09-15T07:00:09.860Z,62.7
2016-09-15T07:01:09.842Z,63.09
2016-09-15T07:02:09.824Z,62.9
2016-09-15T07:03:09.806Z,62.51
2016-09-15T07:04:09.794Z,62.7
2016-09-15T07:05:09.773Z,62.32
2016-09-15T07:06:09.751Z,62.22
2016-09-15T07:07:09.735Z,62.03
2016-09-15T07:08:09.714Z,62.03
2016-09-15T07:09:09.699Z,61.96
2016-09-15T07:10:09.679Z,62.12
2016-09-15T07:11:09.661Z,62.03
2016-09-15T07:12:09.644Z,61.58
2016-09-15T07:13:09.625Z,61.38
2016-09-15T07:14:09.609Z,61.58
2016-09-15T07:15:09.589Z,61.48
2016-09-15T07:16:09.579Z,61.77
2016-09-15T07:17:09.553Z,61.38
2016-09-15T07:18:09.540Z,61.19
2016-09-15T07:19:09.520Z,61.1
2016-09-15T07:20:09.505Z,61.29
2016-09-15T07:21:09.481Z,60.71
2016-09-15T07:22:09.466Z,61.29
2016-09-15T07:23:09.451Z,61.03
2016-09-15T07:24:09.437Z,61.03
2016-09-15T07:25:09.415Z,61.1
2016-09-15T07:26:09.394Z,60.64
2016-09-15T07:27:09.381Z,60.64
2016-09-15T07:28:09.659Z,60.35
2016-09-15T07:29:09.439Z,60.26
2016-09-15T07:30:09.327Z,60.74
2016-09-15T07:31:09.412Z,60.45
2016-09-15T07:32:09.383Z,60.45
2016-09-15T07:33:09.275Z,60.26
2016-09-15T07:34:09.257Z,60.26
2016-09-15T07:35:09.239Z,60.83
2016-09-15T07:36:09.222Z,60.74
2016-09-15T07:37:09.342Z,60.74
2016-09-15T07:38:09.234Z,60.06
2016-09-15T07:39:09.171Z,59.87
2016-09-15T07:40:09.156Z,59.97
2016-09-15T07:41:09.140Z,60.1
2016-09-15T07:42:09.125Z,60.1
2016-09-15T07:43:09.102Z,59.8
2016-09-15T07:44:09.084Z,60
2016-09-15T07:45:09.070Z,60.19
2016-09-15T07:46:09.050Z,59.61
2016-09-15T07:47:09.036Z,59.61
2016-09-15T07:48:09.021Z,59.61
2016-09-15T07:49:09.003Z,59.23
2016-09-15T07:50:08.985Z,59.23
2016-09-15T07:51:08.969Z,59.13
2016-09-15T07:52:08.951Z,59.55
2016-09-15T07:53:08.932Z,58.68
2016-09-15T07:54:08.918Z,58.77
2016-09-15T07:55:08.902Z,58.39
2016-09-15T07:56:08.889Z,58.68
2016-09-15T07:57:08.868Z,58.97
2016-09-15T07:58:08.851Z,58.48
2016-09-15T07:59:08.835Z,58.1
2016-09-15T08:00:08.819Z,58.39
2016-09-15T08:01:08.801Z,58.12
2016-09-15T08:02:08.786Z,57.93
2016-09-15T08:03:08.769Z,57.84
2016-09-15T08:04:08.752Z,58.03
2016-09-15T08:05:08.736Z,57.16
2016-09-15T08:06:08.720Z,57.26
2016-09-15T08:07:08.702Z,57.26
2016-09-15T08:08:08.688Z,57.09
2016-09-15T08:09:08.669Z,56.9
2016-09-15T08:10:08.654Z,57.29
2016-09-15T08:11:08.638Z,57.19
2016-09-15T08:12:08.626Z,57.26
2016-09-15T08:13:08.605Z,56.9
2016-09-15T08:14:08.590Z,56.99
2016-09-15T08:15:08.572Z,56.61
2016-09-15T08:16:08.578Z,56.8
2016-09-15T08:17:08.540Z,56.32
2016-09-15T08:18:08.526Z,56.03
2016-09-15T08:19:08.508Z,56.03
2016-09-15T08:20:08.494Z,56.15
2016-09-15T08:21:08.476Z,56.35
2016-09-15T08:22:08.462Z,55.57
2016-09-15T08:23:08.446Z,55.57
2016-09-15T08:24:08.436Z,55.38
2016-09-15T08:25:08.414Z,55.19
2016-09-15T08:26:08.396Z,55.29
2016-09-15T08:27:08.382Z,55.29
2016-09-15T08:28:08.366Z,55.09
2016-09-15T08:29:08.348Z,55.09
2016-09-15T08:30:08.335Z,55.21
2016-09-15T08:31:08.317Z,54.63
2016-09-15T08:32:08.306Z,54.73
2016-09-15T08:33:08.289Z,54.63
2016-09-15T08:34:08.272Z,54.25
2016-09-15T08:35:08.261Z,54.63
2016-09-15T08:36:08.243Z,54.83
2016-09-15T08:37:08.524Z,54.44
2016-09-15T08:38:08.209Z,54.35
2016-09-15T08:39:08.195Z,54.25
2016-09-15T08:40:08.181Z,53.99
2016-09-15T08:41:08.165Z,53.77
2016-09-15T08:42:08.151Z,53.69
2016-09-15T08:43:08.441Z,53.59
2016-09-15T08:44:08.119Z,53.79
2016-09-15T08:45:08.111Z,53.89
2016-09-15T08:46:08.085Z,53.41
2016-09-15T08:47:08.074Z,53.59
2016-09-15T08:48:08.054Z,53.5
2016-09-15T08:49:08.043Z,53.21
2016-09-15T08:50:08.026Z,53.41
2016-09-15T08:51:08.010Z,53.11
2016-09-15T08:52:07.995Z,52.92
2016-09-15T08:53:07.987Z,52.73
2016-09-15T08:54:07.966Z,52.63
2016-09-15T08:55:07.951Z,52.44
2016-09-15T08:56:07.937Z,52.95
2016-09-15T08:57:07.921Z,52.36
2016-09-15T08:58:07.907Z,51.98
2016-09-15T08:59:07.893Z,52.36
2016-09-15T09:00:07.877Z,51.5
2016-09-15T09:01:07.860Z,51.3
2016-09-15T09:02:07.848Z,51.2
2016-09-15T09:03:08.127Z,51.1
2016-09-15T09:04:07.818Z,51.23
2016-09-15T09:05:07.798Z,50.94
2016-09-15T09:06:07.791Z,51.23
2016-09-15T09:07:07.772Z,50.45
2016-09-15T09:08:07.756Z,50.45
2016-09-15T09:09:07.745Z,50.45
2016-09-15T09:10:07.724Z,50.45
2016-09-15T09:11:07.712Z,50.35
2016-09-15T09:12:07.700Z,50.35
2016-09-15T09:13:07.684Z,50.26
2016-09-15T09:14:07.668Z,50.45
2016-09-15T09:15:07.655Z,50.45
2016-09-15T09:16:07.937Z,50.26
2016-09-15T09:17:07.625Z,50.16
2016-09-15T09:18:07.609Z,49.77
2016-09-15T09:19:07.593Z,49.61
2016-09-15T09:20:07.582Z,49.8
2016-09-15T09:21:07.565Z,49.51
2016-09-15T09:22:07.552Z,49.51
2016-09-15T09:23:07.537Z,49.32
2016-09-15T09:24:07.524Z,49.51
2016-09-15T09:25:07.810Z,49.22
2016-09-15T09:26:07.790Z,49.51
2016-09-15T09:27:07.479Z,49.51
2016-09-15T09:28:07.468Z,49.41
2016-09-15T09:29:07.450Z,49.22
2016-09-15T09:30:07.436Z,49.7
2016-09-15T09:31:07.844Z,49.15
2016-09-15T09:32:07.403Z,49.05
2016-09-15T09:33:07.399Z,48.95
2016-09-15T09:34:07.375Z,49.15
2016-09-15T09:35:07.366Z,48.95
2016-09-15T09:36:07.349Z,48.66
2016-09-15T09:37:07.336Z,48.27
2016-09-15T09:38:07.322Z,48.47
2016-09-15T09:39:07.305Z,48.2
2016-09-15T09:40:07.291Z,47.91
2016-09-15T09:41:07.278Z,48.1
2016-09-15T09:42:07.265Z,47.45
2016-09-15T09:43:07.249Z,48
2016-09-15T09:44:07.238Z,47.35
2016-09-15T09:45:07.220Z,47.74
2016-09-15T09:46:07.209Z,47.35
2016-09-15T09:47:07.476Z,46.96
2016-09-15T09:48:07.180Z,46.58
2016-09-15T09:49:07.174Z,46.86
2016-09-15T09:50:07.154Z,46.86
2016-09-15T09:51:07.138Z,46.5
2016-09-15T09:52:07.421Z,46.41
2016-09-15T09:53:07.112Z,46.01
2016-09-15T09:54:07.099Z,45.82
2016-09-15T09:55:07.084Z,45.92
2016-09-15T09:56:07.078Z,45.72
2016-09-15T09:57:07.058Z,45.72
2016-09-15T09:58:07.042Z,45.62
2016-09-15T09:59:07.026Z,45.82
2016-09-15T10:00:07.017Z,45.34
2016-09-15T10:01:07.001Z,45.43
2016-09-15T10:02:07.006Z,45.34
2016-09-15T10:03:07.003Z,45.62
2016-09-15T10:04:06.960Z,45.34
2016-09-15T10:05:06.997Z,45.17
2016-09-15T10:06:06.973Z,44.95
2016-09-15T10:07:06.945Z,45.07
2016-09-15T10:08:06.919Z,44.68
2016-09-15T10:09:06.936Z,44.19
2016-09-15T10:10:06.879Z,44
2016-09-15T10:11:06.865Z,44.41
2016-09-15T10:12:06.957Z,44.12
2016-09-15T10:13:06.860Z,43.73
2016-09-15T10:14:06.826Z,44.12
2016-09-15T10:15:06.905Z,43.92
2016-09-15T10:16:06.862Z,43.73
2016-09-15T10:17:06.789Z,43.82
2016-09-15T10:18:06.830Z,43.73
2016-09-15T10:19:06.789Z,43.05
2016-09-15T10:20:07.092Z,43.82
2016-09-15T10:21:06.740Z,42.95
2016-09-15T10:22:06.720Z,42.78
2016-09-15T10:23:06.733Z,42.49
2016-09-15T10:24:06.754Z,42.56
2016-09-15T10:25:06.716Z,42.29
2016-09-15T10:26:06.667Z,42
2016-09-15T10:27:06.732Z,42.39
2016-09-15T10:28:06.694Z,42.58
2016-09-15T10:29:06.657Z,41.8
2016-09-15T10:30:07.124Z,42.19
2016-09-15T10:31:06.658Z,41.42
2016-09-15T10:32:06.626Z,41.51
2016-09-15T10:33:06.988Z,41.53
2016-09-15T10:34:06.581Z,41.34
2016-09-15T10:35:06.553Z,41.05
2016-09-15T10:36:06.938Z,41.24
2016-09-15T10:37:06.532Z,40.75
2016-09-15T10:38:06.514Z,40.56
2016-09-15T10:39:06.505Z,40.08
2016-09-15T10:40:06.487Z,40.17
2016-09-15T10:41:06.472Z,40.17
2016-09-15T10:42:06.464Z,39.88
2016-09-15T10:43:06.448Z,39.98
2016-09-15T10:44:06.437Z,39.69
2016-09-15T10:45:06.423Z,39.29
2016-09-15T10:46:06.412Z,39.29
2016-09-15T10:47:06.401Z,39.12
2016-09-15T10:48:06.387Z,39.31
2016-09-15T10:49:06.374Z,39.12
2016-09-15T10:50:06.502Z,38.83
2016-09-15T10:51:06.352Z,38.64
2016-09-15T10:52:06.336Z,38.73
2016-09-15T10:53:06.324Z,38.46
2016-09-15T10:54:06.311Z,37.77
2016-09-15T10:55:06.301Z,37.97
2016-09-15T10:56:06.284Z,37.68
2016-09-15T10:57:06.275Z,37.19
2016-09-15T10:58:06.263Z,37.58
2016-09-15T10:59:06.253Z,37.29
2016-09-15T11:00:06.238Z,37.19
2016-09-15T11:01:06.224Z,37.19
2016-09-15T11:02:06.217Z,36.9
2016-09-15T11:03:06.201Z,36.8
2016-09-15T11:04:06.267Z,36.61
2016-09-15T11:05:06.201Z,36.71
2016-09-15T11:06:06.166Z,36.61
2016-09-15T11:07:06.151Z,36.41
2016-09-15T11:08:06.139Z,36.63
2016-09-15T11:09:06.129Z,36.53
2016-09-15T11:10:06.115Z,36.72
2016-09-15T11:11:06.102Z,36.14
2016-09-15T11:12:06.091Z,36.04
2016-09-15T11:13:06.081Z,35.65
2016-09-15T11:14:06.066Z,35.46
2016-09-15T11:15:06.056Z,35.47
2016-09-15T11:16:06.043Z,35.18
2016-09-15T11:17:06.032Z,35.38
2016-09-15T11:18:06.023Z,34.99
2016-09-15T11:19:06.011Z,35.18
2016-09-15T11:20:05.996Z,34.69
2016-09-15T11:21:05.985Z,34.59
2016-09-15T11:22:05.975Z,34.42
2016-09-15T11:23:05.959Z,34.12
2016-09-15T11:24:05.951Z,34.4
2016-09-15T11:25:05.937Z,34.61
2016-09-15T11:26:05.928Z,34.12
2016-09-15T11:27:05.916Z,34.31
2016-09-15T11:28:05.903Z,34.22
2016-09-15T11:29:05.890Z,33.93
2016-09-15T11:30:05.881Z,33.82
2016-09-15T11:31:05.870Z,33.73
2016-09-15T11:32:05.858Z,33.64
2016-09-15T11:33:05.848Z,33.73
2016-09-15T11:34:05.834Z,33.53
2016-09-15T11:35:05.852Z,33.44
2016-09-15T11:36:05.822Z,33.33
2016-09-15T11:37:05.799Z,33.15
2016-09-15T11:38:05.786Z,33.06
2016-09-15T11:39:05.776Z,33.15
2016-09-15T11:40:05.765Z,33.15
2016-09-15T11:41:05.753Z,33.06
2016-09-15T11:42:05.743Z,32.86
2016-09-15T11:43:05.729Z,32.96
2016-09-15T11:44:06.015Z,32.97
2016-09-15T11:45:05.704Z,32.87
2016-09-15T11:46:05.697Z,32.86
2016-09-15T11:47:05.682Z,32.86
2016-09-15T11:48:05.672Z,32.68
2016-09-15T11:49:05.658Z,32.68
2016-09-15T11:50:05.652Z,32.58
2016-09-15T11:51:05.643Z,32.48
2016-09-15T11:52:05.629Z,32.39
2016-09-15T11:53:05.616Z,32.29
2016-09-15T11:54:05.607Z,32.37
2016-09-15T11:55:05.597Z,32.29
2016-09-15T11:56:05.581Z,32.19
2016-09-15T11:57:05.571Z,32.29
2016-09-15T11:58:05.557Z,32.09
2016-09-15T11:59:05.550Z,32.29
2016-09-15T12:00:05.537Z,32.09
2016-09-15T12:01:05.524Z,31.8
2016-09-15T12:02:05.511Z,31.7
2016-09-15T12:03:05.803Z,31.7
2016-09-15T12:04:05.491Z,31.6
2016-09-15T12:05:05.491Z,31.6
2016-09-15T12:06:05.468Z,31.22
2016-09-15T12:07:05.456Z,31.6
2016-09-15T12:08:05.446Z,31.22
2016-09-15T12:09:05.432Z,31.12
2016-09-15T12:10:05.425Z,31.02
2016-09-15T12:11:05.411Z,30.93
2016-09-15T12:12:05.400Z,30.83
2016-09-15T12:13:05.387Z,30.93
2016-09-15T12:14:05.377Z,31.02
2016-09-15T12:15:05.365Z,31.02
2016-09-15T12:16:05.356Z,30.93
2016-09-15T12:17:05.344Z,30.93
2016-09-15T12:18:05.339Z,31.02
2016-09-15T12:19:05.321Z,30.55
2016-09-15T12:20:05.311Z,30.35
2016-09-15T12:21:05.297Z,30.35
2016-09-15T12:22:05.289Z,30.35
2016-09-15T12:23:05.277Z,29.88
2016-09-15T12:24:05.270Z,29.88
2016-09-15T12:25:05.252Z,30.18
2016-09-15T12:26:05.242Z,29.69
2016-09-15T12:27:05.247Z,29.49
2016-09-15T12:28:05.229Z,29.49
2016-09-15T12:29:05.208Z,29.49
2016-09-15T12:30:05.621Z,29.59
2016-09-15T12:31:05.187Z,28.91
2016-09-15T12:32:05.176Z,28.91
2016-09-15T12:33:05.236Z,28.91
2016-09-15T12:34:05.180Z,28.81
2016-09-15T12:35:05.143Z,28.91
2016-09-15T12:36:05.186Z,27.93
2016-09-15T12:37:05.122Z,27.54
2016-09-15T12:38:05.112Z,27.05
2016-09-15T12:39:05.252Z,26.66
2016-09-15T12:40:05.088Z,26.07
2016-09-15T12:41:05.122Z,25.39
2016-09-15T12:42:05.067Z,25.29
2016-09-15T12:43:05.112Z,24.52
2016-09-15T12:44:05.094Z,24.42
2016-09-15T12:45:05.045Z,24.52
2016-09-15T12:46:05.022Z,24.22
2016-09-15T12:47:05.029Z,23.44
2016-09-15T12:48:04.999Z,23.74
2016-09-15T12:49:05.030Z,23.25
2016-09-15T12:50:04.992Z,23.36
2016-09-15T12:51:04.995Z,23.36
2016-09-15T12:52:04.958Z,23.44
2016-09-15T12:53:04.962Z,23.44
2016-09-15T12:54:04.996Z,23.35
2016-09-15T12:55:05.020Z,23.16
2016-09-15T12:56:05.445Z,22.87